Aérodrome :
LOGIN :

S'inscrire | Disclaimer

   EN    FR    IT 

 










Légende :    VFR   VFR Marginal   IFR   IFR Intensif   IFR Très Intensif
Visi : 
Plafond : 
>= 8 km
>= 3000ft
5 à 8 km
1000 à 3000 ft
1500m à 5 km
500 à 1000 ft
800 à 1500m
200 à 500 ft
< 800m
< 200 ft
Symboles :   Orages  Brouillard  Fortes neiges  Fortes précipitations  Vent > 20 kt
SIGMETs :   Divers  Orages  Givrage  Turbulence  Onde Orograph.  Cendres Volcan.






- Altitude de l'aérodrome : 574 ft
- Code IATA : TEQ


LTBU - Corlu

DERNIER METAR :
  • 210320Z 02014KT 9999 BKN013 BKN025 05/04 Q1016 RMK RWY22 02015KT

METARs EXPIRÉS :
  • 210250Z 02014KT 9999 BKN013 BKN030 05/04 Q1015 RMK RWY22 01014KT
  • 210220Z 02015KT 9999 SCT013 BKN030 05/03 Q1015 RESHRA RMK RWY22 02014KT
  • 210150Z 02015KT 9999 -SHRA BKN015 BKN035 05/03 Q1015 RMK RWY22 02014KT
  • 210120Z 02014KT 9999 -SHRA BKN013 BKN040 05/04 Q1015 RMK RWY22 02013KT
  • 210114Z 02013KT 9999 -SHRA BKN013 BKN040 05/04 Q1015 RMK RWY22 02013KT
  • 210050Z 02013KT 9999 BKN015 BKN040 05/03 Q1015 RMK RWY22 02012KT

TAF TAF LTBU
Valide du 21 à 00h jusqu'au 22 à 00h UTC


202240Z 2100/2124 03018KT 9999 SCT015 BKN025
TEMPO 2100/2104 3200 -SHRA BR BKN007 BKN025
BECMG 2115/2118 03008KT



MET'MAP, la Météo Aéronautique d'un coup d'oeil ! - Copyright ORBIFLY Décembre 2007 - Disclaimer

ORBIFLY MET'MAP TEAM :

Programmation & Développement : Alexandra Zaïnal
Sur une idée originale de : Baudouin d'Aumeries
Assistance à la programmation : Marc-Olivier Méhu
Soutien technique & logistique : Manuel Goepfert

Contact : metmap@orbifly.com




SOURCES & CREDITS :

   NOAA